Time;durP1;ratioP1;P1;durP2;ratioP2;P2;SDS_P1;SDS_P2;PMS_P1;PMS_P2;Temp;Humidity;BMP_temperature;BMP_pressure;BME280_temperature;BME280_humidity;BME280_pressure;Samples;Min_cycle;Max_cycle;Signal;HPM_P1;HPM_P2
2021/12/09 00:01:06;;;;;;;5.90;2.47;;;;;8.60;99920.00;;;;5029488;28;20223;-83
2021/12/09 00:03:37;;;;;;;6.55;3.25;;;;;8.50;99914.00;;;;5021563;28;20623;-83
2021/12/09 00:06:06;;;;;;;5.18;2.28;;;;;8.50;99922.00;;;;5030080;28;20201;-83
2021/12/09 00:08:34;;;;;;;3.53;2.60;;;;;8.50;99914.00;;;;5030164;28;20284;-83
2021/12/09 00:11:03;;;;;;;3.53;2.10;;;;;8.50;99911.00;;;;5030314;28;20200;-83
2021/12/09 00:13:31;;;;;;;3.97;2.75;;;;;8.50;99920.00;;;;5028991;28;20203;-83
2021/12/09 00:15:59;;;;;;;4.38;2.97;;;;;8.50;99917.00;;;;5030193;28;20204;-83
2021/12/09 00:18:27;;;;;;;4.18;2.70;;;;;8.50;99916.00;;;;5029965;28;20204;-83
2021/12/09 00:20:56;;;;;;;3.10;2.05;;;;;8.50;99918.00;;;;5030458;28;20231;-84
2021/12/09 00:23:23;;;;;;;3.63;2.80;;;;;8.50;99922.00;;;;5026311;28;20200;-83
2021/12/09 00:25:51;;;;;;;6.35;2.97;;;;;8.50;99922.00;;;;5030872;28;20195;-83
2021/12/09 00:28:18;;;;;;;3.55;2.22;;;;;8.50;99925.00;;;;5029735;28;20213;-83
2021/12/09 00:30:45;;;;;;;3.22;2.42;;;;;8.50;99919.00;;;;5028629;28;20209;-83
2021/12/09 00:33:15;;;;;;;4.68;2.88;;;;;8.50;99926.00;;;;5030029;28;20199;-82
2021/12/09 00:35:46;;;;;;;3.65;1.83;;;;;8.50;99935.00;;;;5028795;28;20200;-83
2021/12/09 00:38:21;;;;;;;3.72;2.47;;;;;8.50;99935.00;;;;5030193;28;20209;-83
2021/12/09 00:40:49;;;;;;;4.15;2.80;;;;;8.50;99936.00;;;;5030134;28;20314;-84
2021/12/09 00:43:18;;;;;;;3.67;2.65;;;;;8.50;99934.00;;;;5029928;28;20204;-83
2021/12/09 00:45:46;;;;;;;4.18;2.58;;;;;8.50;99938.00;;;;5029810;28;20206;-83
2021/12/09 00:48:13;;;;;;;7.22;3.20;;;;;8.60;99933.00;;;;5030143;28;20203;-83
2021/12/09 00:50:41;;;;;;;6.28;2.60;;;;;8.50;99934.00;;;;5028612;28;20197;-83
2021/12/09 00:53:08;;;;;;;5.20;2.92;;;;;8.50;99935.00;;;;5024217;28;20213;-83
2021/12/09 00:55:37;;;;;;;4.07;2.35;;;;;8.50;99938.00;;;;5026390;28;20223;-84
2021/12/09 00:58:04;;;;;;;4.15;2.70;;;;;8.50;99940.00;;;;5030079;28;20207;-83
2021/12/09 01:00:32;;;;;;;4.60;2.35;;;;;8.50;99935.00;;;;5027471;28;20201;-84
2021/12/09 01:03:00;;;;;;;2.58;2.17;;;;;8.50;99931.00;;;;5030496;28;20204;-83
2021/12/09 01:05:28;;;;;;;4.97;2.35;;;;;8.50;99938.00;;;;5027913;28;20574;-83
2021/12/09 01:07:55;;;;;;;4.53;2.40;;;;;8.50;99938.00;;;;5029142;28;20204;-84
2021/12/09 01:10:23;;;;;;;4.55;2.55;;;;;8.50;99939.00;;;;5028737;28;20219;-83
2021/12/09 01:12:52;;;;;;;3.55;2.17;;;;;8.50;99936.00;;;;5029644;28;20208;-83
2021/12/09 01:15:21;;;;;;;5.15;2.22;;;;;8.50;99941.00;;;;5029006;28;20211;-83
2021/12/09 01:17:49;;;;;;;3.17;2.28;;;;;8.50;99942.00;;;;5029096;28;20204;-83
2021/12/09 01:20:18;;;;;;;3.70;2.42;;;;;8.60;99943.00;;;;5029270;28;20192;-83
2021/12/09 01:22:46;;;;;;;3.53;2.20;;;;;8.60;99940.00;;;;5029248;28;20224;-83
2021/12/09 01:25:16;;;;;;;4.80;2.45;;;;;8.60;99943.00;;;;5029313;28;20776;-83
2021/12/09 01:27:46;;;;;;;5.35;3.35;;;;;8.70;99933.00;;;;5028217;28;20246;-83
2021/12/09 01:30:18;;;;;;;5.30;2.65;;;;;8.70;99929.00;;;;5027959;28;20569;-83
2021/12/09 01:32:50;;;;;;;4.45;2.60;;;;;8.70;99940.00;;;;5028160;28;20234;-84
2021/12/09 01:35:19;;;;;;;4.05;2.10;;;;;8.70;99943.00;;;;5027609;28;20250;-83
2021/12/09 01:37:47;;;;;;;4.53;2.28;;;;;8.80;99949.00;;;;5028894;28;20266;-83
2021/12/09 01:40:16;;;;;;;3.92;2.58;;;;;8.80;99949.00;;;;5027706;28;20204;-83
2021/12/09 01:42:44;;;;;;;6.63;2.67;;;;;8.90;99949.00;;;;5027953;28;20227;-83
2021/12/09 01:45:12;;;;;;;4.60;2.35;;;;;8.90;99949.00;;;;5028023;28;20203;-84
2021/12/09 01:47:41;;;;;;;5.68;2.17;;;;;8.90;99944.00;;;;5028568;28;20281;-83
2021/12/09 01:50:09;;;;;;;6.20;2.50;;;;;9.00;99946.00;;;;5027899;28;20196;-83
2021/12/09 01:52:36;;;;;;;5.03;2.47;;;;;9.00;99946.00;;;;5027319;28;20195;-83
2021/12/09 01:55:06;;;;;;;3.40;2.08;;;;;9.00;99947.00;;;;5027672;28;20231;-83
2021/12/09 01:57:33;;;;;;;2.97;2.17;;;;;9.00;99955.00;;;;5027712;28;20202;-84
2021/12/09 02:00:00;;;;;;;4.45;2.30;;;;;9.00;99949.00;;;;5027411;28;20208;-83
2021/12/09 02:02:28;;;;;;;6.72;2.42;;;;;9.00;99941.00;;;;5023211;28;20220;-84
2021/12/09 02:04:56;;;;;;;4.38;2.42;;;;;9.00;99935.00;;;;5027353;28;20204;-84
2021/12/09 02:07:24;;;;;;;4.10;2.50;;;;;9.00;99934.00;;;;5027912;28;20196;-84
2021/12/09 02:09:51;;;;;;;3.40;2.33;;;;;9.00;99936.00;;;;5027891;28;20204;-83
2021/12/09 02:12:18;;;;;;;4.20;2.67;;;;;9.00;99933.00;;;;5026041;28;20207;-83
2021/12/09 02:14:47;;;;;;;5.20;2.50;;;;;9.00;99932.00;;;;5027347;28;20196;-84
2021/12/09 02:17:15;;;;;;;4.15;2.05;;;;;9.00;99929.00;;;;5027702;28;20193;-83
2021/12/09 02:19:43;;;;;;;4.38;2.80;;;;;9.00;99929.00;;;;5027681;28;20207;-83
2021/12/09 02:22:14;;;;;;;3.42;2.35;;;;;8.90;99926.00;;;;5027694;28;20690;-83
2021/12/09 02:24:42;;;;;;;3.60;2.38;;;;;8.90;99933.00;;;;5027636;28;20211;-83
2021/12/09 02:27:10;;;;;;;6.50;2.20;;;;;8.90;99935.00;;;;5028044;28;20200;-84
2021/12/09 02:29:39;;;;;;;4.20;2.35;;;;;8.90;99943.00;;;;5027418;28;20204;-83
2021/12/09 02:32:07;;;;;;;3.95;2.20;;;;;8.90;99936.00;;;;5027934;28;20279;-83
2021/12/09 02:34:34;;;;;;;3.72;2.15;;;;;8.90;99936.00;;;;5025492;28;20207;-83
2021/12/09 02:37:03;;;;;;;2.97;1.90;;;;;8.80;99943.00;;;;5028679;28;20201;-83
2021/12/09 02:39:32;;;;;;;5.43;2.13;;;;;8.80;99949.00;;;;5027781;28;20207;-84
2021/12/09 02:42:00;;;;;;;3.53;2.08;;;;;8.80;99939.00;;;;5027287;28;20305;-84
2021/12/09 02:44:27;;;;;;;3.33;2.13;;;;;8.80;99934.00;;;;5027068;28;20565;-83
2021/12/09 02:46:56;;;;;;;4.75;2.60;;;;;8.80;99937.00;;;;5027661;28;20205;-83
2021/12/09 02:49:26;;;;;;;4.35;2.33;;;;;8.80;99935.00;;;;5027629;28;20215;-83
2021/12/09 02:51:59;;;;;;;3.40;2.03;;;;;8.70;99929.00;;;;5025243;28;20204;-84
2021/12/09 02:54:27;;;;;;;3.83;1.80;;;;;8.70;99941.00;;;;5024318;28;20185;-84
2021/12/09 02:56:58;;;;;;;4.65;1.85;;;;;8.70;99928.00;;;;5027165;28;20204;-84
2021/12/09 02:59:25;;;;;;;2.38;1.52;;;;;8.70;99937.00;;;;5027294;28;20207;-83
2021/12/09 03:01:57;;;;;;;3.53;1.90;;;;;8.70;99937.00;;;;5028341;28;20216;-83
2021/12/09 03:04:28;;;;;;;4.70;2.55;;;;;8.70;99945.00;;;;5027413;28;20199;-83
2021/12/09 03:06:55;;;;;;;3.25;2.10;;;;;8.70;99951.00;;;;5028437;28;20201;-83
2021/12/09 03:09:23;;;;;;;6.35;2.40;;;;;8.70;99959.00;;;;5018113;28;20205;-83
2021/12/09 03:11:54;;;;;;;3.47;2.00;;;;;8.60;99959.00;;;;5019791;28;20232;-83
2021/12/09 03:14:24;;;;;;;4.65;1.95;;;;;8.60;99962.00;;;;5027273;28;20239;-83
2021/12/09 03:16:52;;;;;;;4.20;2.55;;;;;8.60;99968.00;;;;5028607;28;20204;-83
2021/12/09 03:19:20;;;;;;;2.97;1.85;;;;;8.60;99969.00;;;;5028250;28;20200;-83
2021/12/09 03:21:49;;;;;;;4.35;2.05;;;;;8.60;99970.00;;;;5027887;28;20216;-83
2021/12/09 03:24:19;;;;;;;6.18;2.17;;;;;8.60;99969.00;;;;5030856;28;20196;-84
2021/12/09 03:26:48;;;;;;;4.00;2.08;;;;;8.50;99964.00;;;;5021992;28;20200;-83
2021/12/09 03:29:18;;;;;;;3.30;2.05;;;;;8.50;99968.00;;;;5031309;28;20199;-83
2021/12/09 03:31:48;;;;;;;3.97;2.25;;;;;8.50;99967.00;;;;5025348;28;20212;-83
2021/12/09 03:34:18;;;;;;;5.15;2.50;;;;;8.50;99968.00;;;;5030787;28;20208;-83
2021/12/09 03:36:46;;;;;;;5.60;2.70;;;;;8.50;99971.00;;;;5030665;28;20200;-83
2021/12/09 03:39:18;;;;;;;2.53;1.88;;;;;8.50;99972.00;;;;5031360;28;20596;-83
2021/12/09 03:41:47;;;;;;;3.85;1.90;;;;;8.50;99971.00;;;;5030735;28;20635;-83
2021/12/09 03:44:15;;;;;;;3.63;2.15;;;;;8.50;99971.00;;;;5020490;28;20212;-83
2021/12/09 03:46:42;;;;;;;2.55;1.60;;;;;8.40;99974.00;;;;5031315;28;20202;-84
2021/12/09 03:49:11;;;;;;;4.53;2.65;;;;;8.40;99970.00;;;;5030841;28;20200;-84
2021/12/09 03:51:39;;;;;;;5.00;2.63;;;;;8.40;99979.00;;;;5030296;28;20212;-83
2021/12/09 03:54:07;;;;;;;2.95;1.95;;;;;8.40;99989.00;;;;5031357;28;20203;-83
2021/12/09 03:56:36;;;;;;;3.67;1.88;;;;;8.40;99991.00;;;;5030964;28;20231;-83
2021/12/09 03:59:04;;;;;;;5.15;1.95;;;;;8.40;99977.00;;;;5030489;28;20205;-83
2021/12/09 04:01:32;;;;;;;3.78;1.77;;;;;8.40;99975.00;;;;5030070;28;20200;-83
2021/12/09 04:04:00;;;;;;;4.07;1.85;;;;;8.40;99973.00;;;;5030904;28;20200;-83
2021/12/09 04:06:29;;;;;;;2.97;1.90;;;;;8.40;99975.00;;;;5030256;28;20201;-83
2021/12/09 04:08:56;;;;;;;4.03;2.10;;;;;8.40;99971.00;;;;5030649;28;20330;-83
2021/12/09 04:11:24;;;;;;;5.60;1.92;;;;;8.40;99976.00;;;;5031220;28;20585;-83
2021/12/09 04:13:51;;;;;;;2.33;1.55;;;;;8.30;99967.00;;;;5030585;28;20358;-83
2021/12/09 04:16:18;;;;;;;3.45;1.83;;;;;8.30;99968.00;;;;5029638;28;20570;-83
2021/12/09 04:18:46;;;;;;;3.85;2.00;;;;;8.30;99969.00;;;;5030029;28;20196;-83
2021/12/09 04:21:13;;;;;;;3.65;1.80;;;;;8.30;99968.00;;;;5030222;28;20580;-83
2021/12/09 04:23:42;;;;;;;5.20;2.03;;;;;8.30;99972.00;;;;5029631;28;20219;-84
2021/12/09 04:26:09;;;;;;;4.45;2.00;;;;;8.30;99981.00;;;;5030671;28;20212;-84
2021/12/09 04:28:38;;;;;;;5.05;1.95;;;;;8.30;99979.00;;;;5029452;28;20715;-84
2021/12/09 04:31:06;;;;;;;4.57;2.15;;;;;8.30;99985.00;;;;5030580;28;20200;-84
2021/12/09 04:33:34;;;;;;;2.90;1.60;;;;;8.30;99987.00;;;;5025443;28;20197;-83
2021/12/09 04:36:02;;;;;;;5.45;2.22;;;;;8.30;99982.00;;;;5027357;28;20200;-83
2021/12/09 04:38:29;;;;;;;3.97;2.00;;;;;8.30;100004.00;;;;5029375;28;20227;-83
2021/12/09 04:40:58;;;;;;;2.30;1.35;;;;;8.30;99999.00;;;;5025027;28;20216;-84
2021/12/09 04:43:25;;;;;;;7.40;2.08;;;;;8.30;99994.00;;;;5029445;28;20220;-84
2021/12/09 04:45:52;;;;;;;4.15;1.73;;;;;8.30;99992.00;;;;5029755;28;20203;-84
2021/12/09 04:48:19;;;;;;;3.75;1.58;;;;;8.30;99990.00;;;;5028278;28;20686;-83
2021/12/09 04:50:47;;;;;;;2.45;1.63;;;;;8.30;99992.00;;;;5020644;28;20203;-83
2021/12/09 04:53:15;;;;;;;4.75;1.77;;;;;8.30;99994.00;;;;5028847;28;20287;-84
2021/12/09 04:55:42;;;;;;;3.63;1.70;;;;;8.30;99981.00;;;;5029286;28;20231;-83
2021/12/09 04:58:11;;;;;;;3.85;1.38;;;;;8.30;99988.00;;;;5030334;28;20208;-83
2021/12/09 05:00:38;;;;;;;4.75;1.98;;;;;8.30;99984.00;;;;5029485;28;20205;-82
2021/12/09 05:03:09;;;;;;;3.83;1.90;;;;;8.30;99989.00;;;;5029780;28;20596;-82
2021/12/09 05:05:41;;;;;;;5.50;1.77;;;;;8.30;99992.00;;;;5030149;28;20375;-83
2021/12/09 05:08:11;;;;;;;3.90;1.60;;;;;8.30;99979.00;;;;5020668;28;20674;-83
2021/12/09 05:10:54;;;;;;;2.30;1.55;;;;;8.30;99980.00;;;;5026428;28;20572;-83
2021/12/09 05:13:25;;;;;;;4.15;1.67;;;;;8.30;99980.00;;;;5029563;28;20207;-83
2021/12/09 05:15:52;;;;;;;3.15;1.90;;;;;8.30;99981.00;;;;5028845;28;20200;-82
2021/12/09 05:18:20;;;;;;;1.95;1.00;;;;;8.30;99990.00;;;;5027849;28;20203;-83
2021/12/09 05:20:48;;;;;;;3.70;1.23;;;;;8.30;99983.00;;;;5028899;28;20200;-82
2021/12/09 05:23:17;;;;;;;3.83;1.30;;;;;8.30;99991.00;;;;5028382;28;20227;-83
2021/12/09 05:25:45;;;;;;;3.90;2.03;;;;;8.30;100002.00;;;;5027748;28;20207;-83
2021/12/09 05:28:15;;;;;;;3.13;1.63;;;;;8.30;100007.00;;;;5029597;28;20276;-82
2021/12/09 05:33:26;;;;;;;3.42;1.80;;;;;8.30;100004.00;;;;5027162;28;20211;-82
2021/12/09 05:35:53;;;;;;;4.68;1.60;;;;;8.30;100016.00;;;;5028611;28;20196;-83
2021/12/09 05:38:20;;;;;;;2.40;1.60;;;;;8.30;100017.00;;;;5028694;28;20188;-83
2021/12/09 05:40:49;;;;;;;3.13;1.73;;;;;8.20;100025.00;;;;5028393;28;20231;-83
2021/12/09 05:43:16;;;;;;;2.92;1.67;;;;;8.20;100024.00;;;;5019725;28;20224;-83
2021/12/09 05:45:47;;;;;;;8.10;1.90;;;;;8.20;100026.00;;;;5029519;28;20235;-83
2021/12/09 05:48:15;;;;;;;3.13;1.52;;;;;8.20;100019.00;;;;5028945;28;20193;-82
2021/12/09 05:50:42;;;;;;;2.53;1.40;;;;;8.20;100022.00;;;;5028493;28;20201;-83
2021/12/09 05:53:10;;;;;;;2.97;1.33;;;;;8.20;100013.00;;;;5028206;28;20204;-83
2021/12/09 05:55:43;;;;;;;2.33;1.25;;;;;8.20;100016.00;;;;5028400;28;20231;-83
2021/12/09 05:58:11;;;;;;;2.53;1.20;;;;;8.20;100010.00;;;;5028613;28;20207;-83
2021/12/09 06:00:38;;;;;;;3.55;1.50;;;;;8.20;100010.00;;;;5023010;28;20204;-83
2021/12/09 06:03:06;;;;;;;4.82;1.60;;;;;8.10;100006.00;;;;5021747;28;20231;-84
2021/12/09 06:05:34;;;;;;;3.25;1.65;;;;;8.10;100001.00;;;;5031799;28;20200;-83
2021/12/09 06:08:02;;;;;;;3.00;1.55;;;;;8.10;100001.00;;;;5026112;28;20204;-84
2021/12/09 06:10:30;;;;;;;4.57;1.73;;;;;8.10;100003.00;;;;5027819;28;20188;-83
2021/12/09 06:12:58;;;;;;;2.10;1.35;;;;;8.10;100002.00;;;;5028113;28;20208;-83
2021/12/09 06:15:26;;;;;;;5.78;1.77;;;;;8.10;99999.00;;;;5014635;28;20193;-83
2021/12/09 06:17:53;;;;;;;4.40;1.20;;;;;8.10;100001.00;;;;5021818;28;20224;-82
2021/12/09 06:20:22;;;;;;;3.97;1.98;;;;;8.10;100002.00;;;;5020172;28;20669;-82
2021/12/09 06:22:49;;;;;;;6.97;2.10;;;;;8.10;100010.00;;;;5021846;28;20225;-81
2021/12/09 06:25:19;;;;;;;4.38;1.52;;;;;8.10;100009.00;;;;5025709;28;20640;-82
2021/12/09 06:27:48;;;;;;;2.55;1.65;;;;;8.10;100014.00;;;;5028065;28;20716;-81
2021/12/09 06:30:16;;;;;;;2.97;1.52;;;;;8.10;100017.00;;;;5027466;28;20246;-81
2021/12/09 06:32:44;;;;;;;7.57;2.00;;;;;8.10;100028.00;;;;5026172;28;20211;-82
2021/12/09 06:35:12;;;;;;;2.28;1.42;;;;;8.10;100025.00;;;;5027180;28;20747;-83
2021/12/09 06:37:44;;;;;;;3.92;1.92;;;;;8.10;100033.00;;;;5024826;28;20212;-82
2021/12/09 06:40:14;;;;;;;3.20;1.38;;;;;8.10;100022.00;;;;5026661;28;20295;-83
2021/12/09 06:42:42;;;;;;;4.30;1.80;;;;;8.10;100025.00;;;;5027520;28;20656;-81
2021/12/09 06:45:11;;;;;;;2.58;1.33;;;;;8.10;100019.00;;;;5026725;28;20251;-81
2021/12/09 06:47:39;;;;;;;2.35;1.40;;;;;8.10;100017.00;;;;5025033;28;20199;-80
2021/12/09 06:50:09;;;;;;;2.80;1.45;;;;;8.10;100019.00;;;;5022656;28;20200;-80
2021/12/09 06:52:37;;;;;;;5.45;1.40;;;;;8.10;100017.00;;;;5025451;28;20283;-80
2021/12/09 06:55:08;;;;;;;3.03;1.20;;;;;8.10;100009.00;;;;5025157;28;20232;-81
2021/12/09 06:57:38;;;;;;;4.82;1.92;;;;;8.10;100014.00;;;;5022702;28;20197;-82
2021/12/09 07:00:07;;;;;;;2.85;1.77;;;;;8.10;100015.00;;;;5026995;28;20325;-81
2021/12/09 07:02:34;;;;;;;2.63;1.50;;;;;8.10;100030.00;;;;5024413;28;20211;-82
2021/12/09 07:05:02;;;;;;;4.88;1.50;;;;;8.10;100027.00;;;;5030770;28;20279;-82
2021/12/09 07:07:29;;;;;;;5.57;1.90;;;;;8.10;100037.00;;;;5027418;28;20189;-81
2021/12/09 07:09:57;;;;;;;3.00;1.33;;;;;8.10;100024.00;;;;5031662;28;20204;-81
2021/12/09 07:12:25;;;;;;;3.22;1.55;;;;;8.10;100028.00;;;;5031319;28;20196;-81
2021/12/09 07:14:53;;;;;;;5.20;2.10;;;;;8.10;100033.00;;;;5031881;28;20204;-81
2021/12/09 07:17:20;;;;;;;3.38;1.73;;;;;8.10;100041.00;;;;5031195;28;20225;-80
2021/12/09 07:19:47;;;;;;;2.95;1.23;;;;;8.10;100045.00;;;;5030278;28;20204;-81
2021/12/09 07:22:14;;;;;;;4.57;1.42;;;;;8.10;100046.00;;;;5028776;28;20201;-80
2021/12/09 07:24:42;;;;;;;3.50;1.60;;;;;8.10;100051.00;;;;5028337;28;20228;-80
2021/12/09 07:27:09;;;;;;;4.07;1.40;;;;;8.10;100045.00;;;;5030298;28;21024;-80
2021/12/09 07:29:38;;;;;;;3.25;1.73;;;;;8.10;100048.00;;;;5029888;28;20196;-81
2021/12/09 07:32:06;;;;;;;3.13;1.40;;;;;8.10;100058.00;;;;5030316;28;20211;-84
2021/12/09 07:34:33;;;;;;;2.25;1.70;;;;;8.10;100051.00;;;;5029261;28;20209;-80
2021/12/09 07:37:03;;;;;;;4.90;1.60;;;;;8.10;100051.00;;;;5030631;28;20211;-80
2021/12/09 07:39:32;;;;;;;3.95;1.98;;;;;8.10;100055.00;;;;5030020;28;20201;-80
2021/12/09 07:41:59;;;;;;;4.80;1.77;;;;;8.10;100056.00;;;;5022603;28;20270;-80
2021/12/09 07:44:27;;;;;;;2.13;1.23;;;;;8.10;100052.00;;;;5030430;28;20224;-81
2021/12/09 07:46:57;;;;;;;3.67;1.73;;;;;8.10;100054.00;;;;5029773;28;20262;-80
2021/12/09 07:49:25;;;;;;;3.28;1.40;;;;;8.20;100060.00;;;;5011171;28;20205;-81
2021/12/09 07:51:53;;;;;;;3.28;1.70;;;;;8.20;100056.00;;;;5011281;28;20745;-79
2021/12/09 07:54:22;;;;;;;4.55;1.33;;;;;8.20;100066.00;;;;5030818;28;20212;-79
2021/12/09 07:56:50;;;;;;;3.50;1.55;;;;;8.20;100059.00;;;;5030310;28;20667;-79
2021/12/09 07:59:17;;;;;;;4.75;1.90;;;;;8.20;100060.00;;;;5024179;28;20203;-79
2021/12/09 08:01:45;;;;;;;2.78;1.38;;;;;8.20;100051.00;;;;5029285;28;20208;-80
2021/12/09 08:04:14;;;;;;;2.72;1.65;;;;;8.20;100060.00;;;;5030452;28;20581;-79
2021/12/09 08:06:42;;;;;;;3.17;1.55;;;;;8.20;100069.00;;;;5030960;28;20204;-79
2021/12/09 08:09:10;;;;;;;5.28;2.03;;;;;8.30;100065.00;;;;5029173;28;20204;-81
2021/12/09 08:11:38;;;;;;;5.80;1.85;;;;;8.30;100068.00;;;;5027149;28;20208;-81
2021/12/09 08:14:07;;;;;;;3.08;1.35;;;;;8.40;100079.00;;;;5029612;28;20192;-81
2021/12/09 08:16:37;;;;;;;4.00;1.63;;;;;8.40;100078.00;;;;5021112;28;20373;-81
2021/12/09 08:19:05;;;;;;;3.28;1.48;;;;;8.50;100088.00;;;;5030056;28;20211;-81
2021/12/09 08:21:36;;;;;;;2.40;1.20;;;;;8.50;100092.00;;;;5029419;28;20216;-81
2021/12/09 08:24:05;;;;;;;3.58;1.40;;;;;8.60;100091.00;;;;5027335;28;20310;-81
2021/12/09 08:26:32;;;;;;;3.35;1.67;;;;;8.70;100085.00;;;;5028345;28;20222;-81
2021/12/09 08:29:00;;;;;;;3.85;1.88;;;;;8.70;100085.00;;;;5030325;28;20207;-81
2021/12/09 08:31:29;;;;;;;2.78;1.73;;;;;8.70;100084.00;;;;5023845;28;20201;-81
2021/12/09 08:33:57;;;;;;;3.88;1.42;;;;;8.80;100082.00;;;;5029914;28;20223;-81
2021/12/09 08:36:24;;;;;;;4.65;1.48;;;;;8.80;100085.00;;;;5029660;28;20192;-81
2021/12/09 08:38:53;;;;;;;3.55;1.60;;;;;8.90;100082.00;;;;5029869;28;20204;-81
2021/12/09 08:41:21;;;;;;;3.22;1.40;;;;;8.90;100084.00;;;;5029332;28;20220;-81
2021/12/09 08:43:49;;;;;;;2.97;1.42;;;;;8.90;100081.00;;;;5027733;28;20877;-81
2021/12/09 08:46:17;;;;;;;4.97;2.00;;;;;9.00;100082.00;;;;5029784;28;20204;-81
2021/12/09 08:48:46;;;;;;;2.70;1.85;;;;;9.00;100092.00;;;;5026300;28;20208;-81
2021/12/09 08:51:14;;;;;;;3.30;1.77;;;;;9.10;100092.00;;;;5027857;28;20231;-81
2021/12/09 08:53:41;;;;;;;4.18;1.50;;;;;9.10;100097.00;;;;5029182;28;20199;-81
2021/12/09 08:56:10;;;;;;;3.83;2.20;;;;;9.10;100094.00;;;;5028959;28;20227;-81
2021/12/09 08:58:37;;;;;;;3.53;1.75;;;;;9.20;100088.00;;;;5028808;28;20204;-81
2021/12/09 09:01:11;;;;;;;4.10;2.00;;;;;9.30;100092.00;;;;5028570;28;20204;-81
2021/12/09 09:03:38;;;;;;;2.67;2.05;;;;;9.30;100096.00;;;;5027231;28;20298;-80
2021/12/09 09:06:06;;;;;;;3.78;1.50;;;;;9.40;100090.00;;;;5021326;28;20197;-80
2021/12/09 09:08:33;;;;;;;4.20;1.95;;;;;9.40;100094.00;;;;5027605;28;20204;-81
2021/12/09 09:11:00;;;;;;;4.10;2.03;;;;;9.50;100093.00;;;;5029009;28;20208;-82
2021/12/09 09:13:29;;;;;;;3.25;1.77;;;;;9.50;100098.00;;;;5028228;28;20203;-82
2021/12/09 09:15:56;;;;;;;2.40;1.80;;;;;9.60;100100.00;;;;5029562;28;20188;-82
2021/12/09 09:18:24;;;;;;;3.13;1.80;;;;;9.70;100100.00;;;;5028797;28;20199;-82
2021/12/09 09:20:52;;;;;;;4.93;2.00;;;;;9.70;100100.00;;;;5028749;28;20200;-82
2021/12/09 09:23:22;;;;;;;4.20;2.00;;;;;9.80;100098.00;;;;5025917;28;20208;-83
2021/12/09 09:25:50;;;;;;;3.78;2.33;;;;;9.90;100089.00;;;;5020924;28;20204;-82
2021/12/09 09:28:18;;;;;;;4.20;2.30;;;;;9.90;100100.00;;;;5028107;28;20200;-81
2021/12/09 09:30:53;;;;;;;3.92;2.33;;;;;10.00;100091.00;;;;5028817;28;20212;-81
2021/12/09 09:33:21;;;;;;;3.17;2.30;;;;;10.10;100102.00;;;;5027003;28;20261;-81
2021/12/09 09:35:49;;;;;;;3.47;2.63;;;;;10.10;100096.00;;;;5028440;28;20204;-81
2021/12/09 09:38:18;;;;;;;3.47;2.13;;;;;10.20;100101.00;;;;5028175;28;20217;-81
2021/12/09 09:40:50;;;;;;;4.35;2.33;;;;;10.20;100108.00;;;;5025583;28;20200;-81
2021/12/09 09:43:29;;;;;;;4.18;2.85;;;;;10.20;100106.00;;;;5027522;28;20188;-81
2021/12/09 09:46:00;;;;;;;3.42;2.28;;;;;10.20;100111.00;;;;5027721;28;20250;-81
2021/12/09 09:48:29;;;;;;;4.32;2.15;;;;;10.30;100107.00;;;;5026256;28;20250;-81
2021/12/09 09:50:57;;;;;;;5.05;2.45;;;;;10.30;100116.00;;;;5026625;28;21082;-80
2021/12/09 09:53:25;;;;;;;7.75;2.95;;;;;10.30;100115.00;;;;5023438;28;20196;-81
2021/12/09 09:55:52;;;;;;;4.20;2.63;;;;;10.40;100122.00;;;;5026791;28;20231;-81
2021/12/09 09:58:21;;;;;;;4.28;2.83;;;;;10.40;100121.00;;;;5026249;28;20201;-81
2021/12/09 10:00:49;;;;;;;3.17;2.28;;;;;10.40;100128.00;;;;5026608;28;20210;-81
2021/12/09 10:03:18;;;;;;;4.03;2.80;;;;;10.50;100121.00;;;;5027231;28;20200;-81
2021/12/09 10:05:47;;;;;;;3.30;2.22;;;;;10.50;100117.00;;;;5028123;28;20228;-81
2021/12/09 10:08:16;;;;;;;5.93;2.53;;;;;10.60;100122.00;;;;5027040;28;20250;-81
2021/12/09 10:10:45;;;;;;;3.83;1.83;;;;;10.60;100118.00;;;;5027872;28;20205;-81
2021/12/09 10:13:14;;;;;;;4.10;2.33;;;;;10.70;100121.00;;;;5026809;28;20196;-80
2021/12/09 10:15:48;;;;;;;3.00;2.13;;;;;10.60;100123.00;;;;5025166;28;20188;-81
2021/12/09 10:18:31;;;;;;;5.20;2.83;;;;;10.70;100119.00;;;;5027516;28;20200;-81
2021/12/09 10:20:59;;;;;;;2.25;1.95;;;;;10.80;100115.00;;;;5027933;28;20689;-80
2021/12/09 10:23:30;;;;;;;4.93;2.40;;;;;10.80;100120.00;;;;5026405;28;20204;-80
2021/12/09 10:26:19;;;;;;;5.95;2.53;;;;;10.70;100119.00;;;;5025876;28;20203;-82
2021/12/09 10:28:51;;;;;;;3.78;2.03;;;;;10.80;100114.00;;;;5028100;28;20196;-80
2021/12/09 10:31:23;;;;;;;4.47;2.13;;;;;10.80;100107.00;;;;5026910;28;20192;-81
2021/12/09 10:34:04;;;;;;;5.38;2.33;;;;;10.80;100107.00;;;;5026861;28;20200;-80
2021/12/09 10:36:50;;;;;;;4.28;1.98;;;;;10.80;100100.00;;;;5027129;28;20196;-79
2021/12/09 10:39:27;;;;;;;3.53;2.47;;;;;10.90;100096.00;;;;5008086;28;20212;-80
2021/12/09 10:41:55;;;;;;;5.97;2.92;;;;;10.90;100091.00;;;;5020069;28;20216;-80
2021/12/09 10:44:39;;;;;;;9.27;2.75;;;;;10.90;100089.00;;;;5027408;28;20620;-81
2021/12/09 10:47:12;;;;;;;3.80;2.33;;;;;11.00;100085.00;;;;5026553;28;20211;-80
2021/12/09 10:50:05;;;;;;;4.68;2.70;;;;;10.90;100089.00;;;;5007843;28;20201;-82
2021/12/09 10:52:41;;;;;;;5.75;2.92;;;;;11.00;100084.00;;;;5013720;28;20210;-81
2021/12/09 10:55:22;;;;;;;3.80;2.45;;;;;11.00;100090.00;;;;5027125;28;20227;-81
2021/12/09 10:57:56;;;;;;;4.45;3.30;;;;;11.00;100088.00;;;;5027006;28;20256;-80
2021/12/09 11:00:27;;;;;;;4.93;3.05;;;;;11.10;100089.00;;;;5027717;28;20693;-81
2021/12/09 11:03:03;;;;;;;5.65;2.90;;;;;11.10;100094.00;;;;5026509;28;20204;-81
2021/12/09 11:05:34;;;;;;;6.45;2.97;;;;;11.20;100084.00;;;;5015952;28;20235;-81
2021/12/09 11:08:24;;;;;;;5.28;3.25;;;;;11.20;100094.00;;;;5026178;28;20207;-82
2021/12/09 11:11:04;;;;;;;4.78;3.40;;;;;11.30;100085.00;;;;5008948;28;20550;-82
2021/12/09 11:13:54;;;;;;;8.23;4.47;;;;;11.20;100081.00;;;;5027248;28;20212;-81
2021/12/09 11:16:28;;;;;;;7.05;3.28;;;;;11.30;100087.00;;;;5024424;28;20200;-81
2021/12/09 11:19:05;;;;;;;4.55;3.50;;;;;11.30;100091.00;;;;5027292;28;20197;-81
2021/12/09 11:21:38;;;;;;;8.45;4.28;;;;;11.40;100082.00;;;;5026023;28;20211;-80
2021/12/09 11:24:10;;;;;;;5.30;3.97;;;;;11.40;100090.00;;;;5025089;28;20977;-81
2021/12/09 11:26:55;;;;;;;6.13;3.53;;;;;11.40;100076.00;;;;5027385;28;20200;-80
2021/12/09 11:29:25;;;;;;;7.07;4.38;;;;;11.50;100085.00;;;;5027342;28;20230;-80
2021/12/09 11:32:02;;;;;;;8.80;4.70;;;;;11.50;100079.00;;;;5027115;28;20205;-80
2021/12/09 11:34:40;;;;;;;6.80;4.45;;;;;11.50;100073.00;;;;5026269;28;20214;-80
2021/12/09 11:37:33;;;;;;;8.77;5.18;;;;;11.60;100069.00;;;;5021292;28;20224;-80
2021/12/09 11:40:02;;;;;;;5.95;4.78;;;;;11.60;100073.00;;;;5021545;28;20283;-80
2021/12/09 11:42:35;;;;;;;6.72;4.95;;;;;11.70;100067.00;;;;5026886;28;20235;-82
2021/12/09 11:45:02;;;;;;;6.82;4.45;;;;;11.70;100068.00;;;;5029920;28;20243;-81
2021/12/09 11:47:30;;;;;;;7.32;4.75;;;;;11.70;100073.00;;;;5030707;28;20189;-81
2021/12/09 11:49:57;;;;;;;6.35;4.63;;;;;11.70;100069.00;;;;5030684;28;20200;-81
2021/12/09 11:52:25;;;;;;;7.68;4.68;;;;;11.80;100060.00;;;;5030910;28;20200;-81
2021/12/09 11:54:59;;;;;;;11.10;5.18;;;;;11.80;100047.00;;;;5027677;28;20228;-81
2021/12/09 11:57:35;;;;;;;7.43;4.30;;;;;11.80;100054.00;;;;5026645;28;20291;-81
2021/12/09 12:07:08;;;;;;;7.78;4.75;;;;;11.80;100053.00;;;;5029896;28;20227;-81
2021/12/09 12:12:42;;;;;;;4.95;4.18;;;;;11.80;100058.00;;;;5023315;28;20327;-80
2021/12/09 12:15:44;;;;;;;4.68;3.67;;;;;11.80;100060.00;;;;5024240;28;20200;-80
2021/12/09 12:18:29;;;;;;;4.43;3.92;;;;;11.90;100058.00;;;;5018267;28;20250;-81
2021/12/09 12:21:09;;;;;;;6.68;4.60;;;;;11.90;100052.00;;;;5029224;28;20666;-81
2021/12/09 12:23:41;;;;;;;8.15;4.47;;;;;11.90;100053.00;;;;5029440;28;21161;-80
2021/12/09 12:26:53;;;;;;;7.30;4.72;;;;;11.80;100048.00;;;;5029514;28;20262;-81
2021/12/09 12:32:41;;;;;;;5.82;4.53;;;;;11.90;100049.00;;;;5010491;28;20227;-81
2021/12/09 12:38:35;;;;;;;10.00;4.80;;;;;12.00;100052.00;;;;4991773;28;20346;-80
2021/12/09 12:41:07;;;;;;;5.05;4.20;;;;;12.00;100046.00;;;;5027236;28;20220;-81
2021/12/09 12:43:42;;;;;;;9.70;4.38;;;;;12.00;100045.00;;;;5029565;28;20291;-81
2021/12/09 12:46:18;;;;;;;6.20;4.32;;;;;12.00;100043.00;;;;5024672;28;20246;-81
2021/12/09 12:49:02;;;;;;;6.63;4.72;;;;;12.00;100045.00;;;;5026722;28;20251;-81
2021/12/09 12:51:34;;;;;;;7.18;4.72;;;;;12.00;100030.00;;;;5029073;28;20718;-80